sensor_id;sensor_type;location;lat;lon;timestamp;P1;durP1;ratioP1;P2;durP2;ratioP2
23496;SDS011;11925;48.122;11.560;2023-07-30T00:00:22;3.45;;;2.00;;
23496;SDS011;11925;48.122;11.560;2023-07-30T00:02:51;3.60;;;2.20;;
23496;SDS011;11925;48.122;11.560;2023-07-30T00:05:21;2.42;;;1.60;;
23496;SDS011;11925;48.122;11.560;2023-07-30T00:07:50;3.33;;;1.85;;
23496;SDS011;11925;48.122;11.560;2023-07-30T00:10:20;2.92;;;1.92;;
23496;SDS011;11925;48.122;11.560;2023-07-30T00:12:49;3.20;;;1.80;;
23496;SDS011;11925;48.122;11.560;2023-07-30T00:15:17;2.85;;;1.40;;
23496;SDS011;11925;48.122;11.560;2023-07-30T00:17:46;4.18;;;1.80;;
23496;SDS011;11925;48.122;11.560;2023-07-30T00:20:15;3.08;;;1.65;;
23496;SDS011;11925;48.122;11.560;2023-07-30T00:22:44;3.58;;;1.80;;
23496;SDS011;11925;48.122;11.560;2023-07-30T00:25:13;2.88;;;1.77;;
23496;SDS011;11925;48.122;11.560;2023-07-30T00:27:42;2.65;;;1.48;;
23496;SDS011;11925;48.122;11.560;2023-07-30T00:30:11;2.70;;;1.52;;
23496;SDS011;11925;48.122;11.560;2023-07-30T00:32:40;2.60;;;1.30;;
23496;SDS011;11925;48.122;11.560;2023-07-30T00:35:11;2.38;;;1.48;;
23496;SDS011;11925;48.122;11.560;2023-07-30T00:37:40;3.90;;;1.60;;
23496;SDS011;11925;48.122;11.560;2023-07-30T00:40:10;2.67;;;1.35;;
23496;SDS011;11925;48.122;11.560;2023-07-30T00:42:39;3.22;;;1.45;;
23496;SDS011;11925;48.122;11.560;2023-07-30T00:45:08;2.72;;;1.60;;
23496;SDS011;11925;48.122;11.560;2023-07-30T00:47:37;3.13;;;1.77;;
23496;SDS011;11925;48.122;11.560;2023-07-30T00:50:07;3.50;;;1.65;;
23496;SDS011;11925;48.122;11.560;2023-07-30T00:52:35;2.60;;;1.60;;
23496;SDS011;11925;48.122;11.560;2023-07-30T00:55:05;3.38;;;1.27;;
23496;SDS011;11925;48.122;11.560;2023-07-30T00:57:36;3.10;;;1.33;;
23496;SDS011;11925;48.122;11.560;2023-07-30T01:00:06;3.88;;;1.85;;
23496;SDS011;11925;48.122;11.560;2023-07-30T01:02:35;4.05;;;1.80;;
23496;SDS011;11925;48.122;11.560;2023-07-30T01:05:04;2.72;;;1.50;;
23496;SDS011;11925;48.122;11.560;2023-07-30T01:07:33;3.78;;;1.52;;
23496;SDS011;11925;48.122;11.560;2023-07-30T01:10:02;2.63;;;1.60;;
23496;SDS011;11925;48.122;11.560;2023-07-30T01:12:31;3.15;;;1.70;;
23496;SDS011;11925;48.122;11.560;2023-07-30T01:15:02;2.28;;;1.48;;
23496;SDS011;11925;48.122;11.560;2023-07-30T01:17:31;2.85;;;1.75;;
23496;SDS011;11925;48.122;11.560;2023-07-30T01:20:00;3.45;;;1.63;;
23496;SDS011;11925;48.122;11.560;2023-07-30T01:22:30;2.15;;;1.25;;
23496;SDS011;11925;48.122;11.560;2023-07-30T01:24:59;2.50;;;1.63;;
23496;SDS011;11925;48.122;11.560;2023-07-30T01:27:28;2.08;;;1.30;;
23496;SDS011;11925;48.122;11.560;2023-07-30T01:30:01;2.13;;;1.25;;
23496;SDS011;11925;48.122;11.560;2023-07-30T01:32:31;2.53;;;1.30;;
23496;SDS011;11925;48.122;11.560;2023-07-30T01:35:00;2.65;;;1.30;;
23496;SDS011;11925;48.122;11.560;2023-07-30T01:37:31;2.38;;;1.30;;
23496;SDS011;11925;48.122;11.560;2023-07-30T01:40:00;5.15;;;1.63;;
23496;SDS011;11925;48.122;11.560;2023-07-30T01:42:29;2.97;;;1.50;;
23496;SDS011;11925;48.122;11.560;2023-07-30T01:44:59;3.75;;;1.30;;
23496;SDS011;11925;48.122;11.560;2023-07-30T01:47:28;2.55;;;1.77;;
23496;SDS011;11925;48.122;11.560;2023-07-30T01:49:57;3.90;;;2.03;;
23496;SDS011;11925;48.122;11.560;2023-07-30T01:52:26;2.40;;;1.50;;
23496;SDS011;11925;48.122;11.560;2023-07-30T01:54:56;2.25;;;1.42;;
23496;SDS011;11925;48.122;11.560;2023-07-30T01:57:25;2.47;;;1.38;;
23496;SDS011;11925;48.122;11.560;2023-07-30T01:59:53;2.05;;;1.60;;
23496;SDS011;11925;48.122;11.560;2023-07-30T02:02:22;2.63;;;1.65;;
23496;SDS011;11925;48.122;11.560;2023-07-30T02:04:51;3.13;;;1.60;;
23496;SDS011;11925;48.122;11.560;2023-07-30T02:07:20;3.00;;;1.60;;
23496;SDS011;11925;48.122;11.560;2023-07-30T02:09:48;3.47;;;1.80;;
23496;SDS011;11925;48.122;11.560;2023-07-30T02:12:18;2.60;;;1.67;;
23496;SDS011;11925;48.122;11.560;2023-07-30T02:14:47;3.03;;;1.85;;
23496;SDS011;11925;48.122;11.560;2023-07-30T02:17:15;2.42;;;1.33;;
23496;SDS011;11925;48.122;11.560;2023-07-30T02:19:44;4.18;;;1.95;;
23496;SDS011;11925;48.122;11.560;2023-07-30T02:22:13;2.25;;;1.58;;
23496;SDS011;11925;48.122;11.560;2023-07-30T02:24:41;3.63;;;1.77;;
23496;SDS011;11925;48.122;11.560;2023-07-30T02:27:10;2.55;;;1.60;;
23496;SDS011;11925;48.122;11.560;2023-07-30T02:29:40;2.35;;;1.55;;
23496;SDS011;11925;48.122;11.560;2023-07-30T02:32:09;3.22;;;1.63;;
23496;SDS011;11925;48.122;11.560;2023-07-30T02:34:37;3.35;;;1.52;;
23496;SDS011;11925;48.122;11.560;2023-07-30T02:37:06;2.72;;;1.73;;
23496;SDS011;11925;48.122;11.560;2023-07-30T02:39:35;3.22;;;1.55;;
23496;SDS011;11925;48.122;11.560;2023-07-30T02:42:03;4.45;;;2.17;;
23496;SDS011;11925;48.122;11.560;2023-07-30T02:44:34;2.42;;;1.60;;
23496;SDS011;11925;48.122;11.560;2023-07-30T02:47:05;3.15;;;1.70;;
23496;SDS011;11925;48.122;11.560;2023-07-30T02:49:34;2.90;;;1.90;;
23496;SDS011;11925;48.122;11.560;2023-07-30T02:52:02;3.00;;;1.90;;
23496;SDS011;11925;48.122;11.560;2023-07-30T02:54:31;2.78;;;1.50;;
23496;SDS011;11925;48.122;11.560;2023-07-30T02:57:00;3.15;;;1.70;;
23496;SDS011;11925;48.122;11.560;2023-07-30T02:59:29;2.67;;;1.52;;
23496;SDS011;11925;48.122;11.560;2023-07-30T03:01:57;2.72;;;1.60;;
23496;SDS011;11925;48.122;11.560;2023-07-30T03:04:27;3.08;;;1.58;;
23496;SDS011;11925;48.122;11.560;2023-07-30T03:06:56;2.47;;;1.60;;
23496;SDS011;11925;48.122;11.560;2023-07-30T03:09:25;4.88;;;2.00;;
23496;SDS011;11925;48.122;11.560;2023-07-30T03:11:54;2.20;;;1.60;;
23496;SDS011;11925;48.122;11.560;2023-07-30T03:14:22;3.15;;;1.83;;
23496;SDS011;11925;48.122;11.560;2023-07-30T03:16:51;2.60;;;1.77;;
23496;SDS011;11925;48.122;11.560;2023-07-30T03:19:20;2.53;;;1.77;;
23496;SDS011;11925;48.122;11.560;2023-07-30T03:21:50;3.28;;;1.70;;
23496;SDS011;11925;48.122;11.560;2023-07-30T03:24:18;3.72;;;2.20;;
23496;SDS011;11925;48.122;11.560;2023-07-30T03:26:47;3.60;;;2.28;;
23496;SDS011;11925;48.122;11.560;2023-07-30T03:29:16;3.33;;;1.75;;
23496;SDS011;11925;48.122;11.560;2023-07-30T03:31:44;2.47;;;1.58;;
23496;SDS011;11925;48.122;11.560;2023-07-30T03:34:13;3.30;;;2.00;;
23496;SDS011;11925;48.122;11.560;2023-07-30T03:36:41;3.38;;;2.00;;
23496;SDS011;11925;48.122;11.560;2023-07-30T03:39:11;3.13;;;1.98;;
23496;SDS011;11925;48.122;11.560;2023-07-30T03:41:40;4.07;;;2.08;;
23496;SDS011;11925;48.122;11.560;2023-07-30T03:44:11;3.17;;;2.33;;
23496;SDS011;11925;48.122;11.560;2023-07-30T03:46:40;3.22;;;2.03;;
23496;SDS011;11925;48.122;11.560;2023-07-30T03:49:09;2.92;;;2.00;;
23496;SDS011;11925;48.122;11.560;2023-07-30T03:51:38;3.65;;;2.22;;
23496;SDS011;11925;48.122;11.560;2023-07-30T03:54:07;3.70;;;1.85;;
23496;SDS011;11925;48.122;11.560;2023-07-30T03:56:37;4.43;;;2.20;;
23496;SDS011;11925;48.122;11.560;2023-07-30T03:59:06;3.92;;;2.10;;
23496;SDS011;11925;48.122;11.560;2023-07-30T04:01:35;2.85;;;1.90;;
23496;SDS011;11925;48.122;11.560;2023-07-30T04:04:04;3.33;;;2.35;;
23496;SDS011;11925;48.122;11.560;2023-07-30T04:06:33;3.80;;;2.25;;
23496;SDS011;11925;48.122;11.560;2023-07-30T04:09:01;3.30;;;2.28;;
23496;SDS011;11925;48.122;11.560;2023-07-30T04:11:30;4.13;;;2.20;;
23496;SDS011;11925;48.122;11.560;2023-07-30T04:14:00;2.88;;;2.13;;
23496;SDS011;11925;48.122;11.560;2023-07-30T04:16:31;3.30;;;2.03;;
23496;SDS011;11925;48.122;11.560;2023-07-30T04:19:00;3.33;;;1.98;;
23496;SDS011;11925;48.122;11.560;2023-07-30T04:21:29;3.67;;;2.30;;
23496;SDS011;11925;48.122;11.560;2023-07-30T04:23:57;4.32;;;2.45;;
23496;SDS011;11925;48.122;11.560;2023-07-30T04:26:27;5.80;;;2.33;;
23496;SDS011;11925;48.122;11.560;2023-07-30T04:28:55;4.75;;;2.03;;
23496;SDS011;11925;48.122;11.560;2023-07-30T04:31:25;4.47;;;2.38;;
23496;SDS011;11925;48.122;11.560;2023-07-30T04:33:54;2.85;;;1.75;;
23496;SDS011;11925;48.122;11.560;2023-07-30T04:36:22;3.22;;;1.80;;
23496;SDS011;11925;48.122;11.560;2023-07-30T04:38:51;3.63;;;1.95;;
23496;SDS011;11925;48.122;11.560;2023-07-30T04:41:24;3.78;;;2.25;;
23496;SDS011;11925;48.122;11.560;2023-07-30T04:43:56;2.90;;;1.90;;
23496;SDS011;11925;48.122;11.560;2023-07-30T04:46:28;2.42;;;1.67;;
23496;SDS011;11925;48.122;11.560;2023-07-30T04:48:57;3.00;;;1.90;;
23496;SDS011;11925;48.122;11.560;2023-07-30T04:51:26;4.88;;;1.90;;
23496;SDS011;11925;48.122;11.560;2023-07-30T04:53:55;3.95;;;1.75;;
23496;SDS011;11925;48.122;11.560;2023-07-30T04:56:24;2.85;;;1.80;;
23496;SDS011;11925;48.122;11.560;2023-07-30T04:58:53;2.40;;;1.73;;
23496;SDS011;11925;48.122;11.560;2023-07-30T05:01:23;2.40;;;1.55;;
23496;SDS011;11925;48.122;11.560;2023-07-30T05:03:53;2.83;;;1.88;;
23496;SDS011;11925;48.122;11.560;2023-07-30T05:06:22;3.78;;;1.92;;
23496;SDS011;11925;48.122;11.560;2023-07-30T05:08:51;2.20;;;1.52;;
23496;SDS011;11925;48.122;11.560;2023-07-30T05:11:19;3.72;;;2.25;;
23496;SDS011;11925;48.122;11.560;2023-07-30T05:13:48;3.40;;;1.88;;
23496;SDS011;11925;48.122;11.560;2023-07-30T05:16:16;3.08;;;1.70;;
23496;SDS011;11925;48.122;11.560;2023-07-30T05:18:45;3.78;;;2.00;;
23496;SDS011;11925;48.122;11.560;2023-07-30T05:21:15;2.75;;;1.77;;
23496;SDS011;11925;48.122;11.560;2023-07-30T05:23:44;3.78;;;2.03;;
23496;SDS011;11925;48.122;11.560;2023-07-30T05:26:15;2.88;;;1.77;;
23496;SDS011;11925;48.122;11.560;2023-07-30T05:28:44;3.83;;;1.70;;
23496;SDS011;11925;48.122;11.560;2023-07-30T05:31:12;2.90;;;2.22;;
23496;SDS011;11925;48.122;11.560;2023-07-30T05:33:41;2.35;;;1.88;;
23496;SDS011;11925;48.122;11.560;2023-07-30T05:36:10;2.65;;;1.60;;
23496;SDS011;11925;48.122;11.560;2023-07-30T05:38:39;2.60;;;1.80;;
23496;SDS011;11925;48.122;11.560;2023-07-30T05:41:08;2.45;;;1.80;;
23496;SDS011;11925;48.122;11.560;2023-07-30T05:43:37;2.60;;;2.03;;
23496;SDS011;11925;48.122;11.560;2023-07-30T05:46:06;3.35;;;1.80;;
23496;SDS011;11925;48.122;11.560;2023-07-30T05:48:34;3.33;;;2.03;;
23496;SDS011;11925;48.122;11.560;2023-07-30T05:51:03;2.47;;;1.80;;
23496;SDS011;11925;48.122;11.560;2023-07-30T05:53:32;2.65;;;1.55;;
23496;SDS011;11925;48.122;11.560;2023-07-30T05:56:02;2.83;;;1.58;;
23496;SDS011;11925;48.122;11.560;2023-07-30T05:58:30;1.98;;;1.30;;
23496;SDS011;11925;48.122;11.560;2023-07-30T06:00:59;2.90;;;1.85;;
23496;SDS011;11925;48.122;11.560;2023-07-30T06:03:28;2.30;;;1.60;;
23496;SDS011;11925;48.122;11.560;2023-07-30T06:05:57;2.67;;;1.73;;
23496;SDS011;11925;48.122;11.560;2023-07-30T06:08:25;3.13;;;1.85;;
23496;SDS011;11925;48.122;11.560;2023-07-30T06:10:54;2.75;;;1.88;;
23496;SDS011;11925;48.122;11.560;2023-07-30T06:13:24;2.83;;;1.60;;
23496;SDS011;11925;48.122;11.560;2023-07-30T06:15:52;3.53;;;2.08;;
23496;SDS011;11925;48.122;11.560;2023-07-30T06:18:21;3.17;;;2.00;;
23496;SDS011;11925;48.122;11.560;2023-07-30T06:20:50;2.78;;;1.80;;
23496;SDS011;11925;48.122;11.560;2023-07-30T06:23:18;2.80;;;1.75;;
23496;SDS011;11925;48.122;11.560;2023-07-30T06:25:47;2.70;;;1.80;;
23496;SDS011;11925;48.122;11.560;2023-07-30T06:28:15;3.10;;;1.83;;
23496;SDS011;11925;48.122;11.560;2023-07-30T06:30:46;3.53;;;1.83;;
23496;SDS011;11925;48.122;11.560;2023-07-30T06:33:14;3.88;;;1.60;;
23496;SDS011;11925;48.122;11.560;2023-07-30T06:35:43;2.47;;;1.63;;
23496;SDS011;11925;48.122;11.560;2023-07-30T06:38:12;4.13;;;2.08;;
23496;SDS011;11925;48.122;11.560;2023-07-30T06:40:40;2.47;;;1.88;;
23496;SDS011;11925;48.122;11.560;2023-07-30T06:43:09;3.05;;;1.95;;
23496;SDS011;11925;48.122;11.560;2023-07-30T06:45:37;3.70;;;2.00;;
23496;SDS011;11925;48.122;11.560;2023-07-30T06:48:07;2.90;;;1.90;;
23496;SDS011;11925;48.122;11.560;2023-07-30T06:50:36;2.58;;;1.70;;
23496;SDS011;11925;48.122;11.560;2023-07-30T06:53:05;2.53;;;1.60;;
23496;SDS011;11925;48.122;11.560;2023-07-30T06:55:33;2.85;;;2.00;;
23496;SDS011;11925;48.122;11.560;2023-07-30T06:58:02;3.15;;;1.88;;
23496;SDS011;11925;48.122;11.560;2023-07-30T07:00:31;2.38;;;1.73;;
23496;SDS011;11925;48.122;11.560;2023-07-30T07:02:59;3.33;;;1.95;;
23496;SDS011;11925;48.122;11.560;2023-07-30T07:05:30;2.70;;;1.90;;
23496;SDS011;11925;48.122;11.560;2023-07-30T07:07:58;3.00;;;1.65;;
23496;SDS011;11925;48.122;11.560;2023-07-30T07:10:27;2.83;;;1.90;;
23496;SDS011;11925;48.122;11.560;2023-07-30T07:12:55;2.97;;;1.60;;
23496;SDS011;11925;48.122;11.560;2023-07-30T07:15:24;3.28;;;1.80;;
23496;SDS011;11925;48.122;11.560;2023-07-30T07:17:53;3.17;;;1.88;;
23496;SDS011;11925;48.122;11.560;2023-07-30T07:20:21;3.70;;;1.77;;
23496;SDS011;11925;48.122;11.560;2023-07-30T07:22:51;2.25;;;1.80;;
23496;SDS011;11925;48.122;11.560;2023-07-30T07:25:20;2.13;;;1.48;;
23496;SDS011;11925;48.122;11.560;2023-07-30T07:27:48;2.60;;;1.70;;
23496;SDS011;11925;48.122;11.560;2023-07-30T07:30:17;3.20;;;1.90;;
23496;SDS011;11925;48.122;11.560;2023-07-30T07:32:46;3.47;;;1.70;;
23496;SDS011;11925;48.122;11.560;2023-07-30T07:35:18;2.58;;;1.75;;
23496;SDS011;11925;48.122;11.560;2023-07-30T07:37:47;2.47;;;1.50;;
23496;SDS011;11925;48.122;11.560;2023-07-30T07:40:17;3.78;;;1.80;;
23496;SDS011;11925;48.122;11.560;2023-07-30T07:42:45;3.30;;;1.88;;
23496;SDS011;11925;48.122;11.560;2023-07-30T07:45:14;3.50;;;1.80;;
23496;SDS011;11925;48.122;11.560;2023-07-30T07:47:44;2.92;;;1.70;;
23496;SDS011;11925;48.122;11.560;2023-07-30T07:50:13;2.47;;;1.52;;
23496;SDS011;11925;48.122;11.560;2023-07-30T07:52:42;2.90;;;1.67;;
23496;SDS011;11925;48.122;11.560;2023-07-30T07:55:11;3.60;;;1.90;;
23496;SDS011;11925;48.122;11.560;2023-07-30T07:57:41;2.92;;;1.50;;
23496;SDS011;11925;48.122;11.560;2023-07-30T08:00:10;2.65;;;1.80;;
23496;SDS011;11925;48.122;11.560;2023-07-30T08:02:40;2.85;;;1.48;;
23496;SDS011;11925;48.122;11.560;2023-07-30T08:05:09;3.83;;;1.90;;
23496;SDS011;11925;48.122;11.560;2023-07-30T08:07:37;2.35;;;1.70;;
23496;SDS011;11925;48.122;11.560;2023-07-30T08:10:06;1.92;;;1.40;;
23496;SDS011;11925;48.122;11.560;2023-07-30T08:12:35;2.33;;;1.60;;
23496;SDS011;11925;48.122;11.560;2023-07-30T08:15:06;2.70;;;1.77;;
23496;SDS011;11925;48.122;11.560;2023-07-30T08:17:35;2.90;;;1.90;;
23496;SDS011;11925;48.122;11.560;2023-07-30T08:20:07;3.92;;;1.90;;
23496;SDS011;11925;48.122;11.560;2023-07-30T08:22:36;3.08;;;1.50;;
23496;SDS011;11925;48.122;11.560;2023-07-30T08:25:05;3.80;;;1.50;;
23496;SDS011;11925;48.122;11.560;2023-07-30T08:27:34;2.53;;;1.73;;
23496;SDS011;11925;48.122;11.560;2023-07-30T08:30:02;2.30;;;1.42;;
23496;SDS011;11925;48.122;11.560;2023-07-30T08:32:33;2.47;;;1.67;;
23496;SDS011;11925;48.122;11.560;2023-07-30T08:35:06;2.78;;;1.60;;
23496;SDS011;11925;48.122;11.560;2023-07-30T08:37:35;3.25;;;1.60;;
23496;SDS011;11925;48.122;11.560;2023-07-30T08:40:04;2.92;;;1.60;;
23496;SDS011;11925;48.122;11.560;2023-07-30T08:42:33;2.55;;;1.52;;
23496;SDS011;11925;48.122;11.560;2023-07-30T08:45:04;2.53;;;1.50;;
23496;SDS011;11925;48.122;11.560;2023-07-30T08:47:35;3.45;;;1.58;;
23496;SDS011;11925;48.122;11.560;2023-07-30T08:50:05;2.45;;;1.58;;
23496;SDS011;11925;48.122;11.560;2023-07-30T08:52:34;3.25;;;1.50;;
23496;SDS011;11925;48.122;11.560;2023-07-30T08:55:04;2.60;;;1.90;;
23496;SDS011;11925;48.122;11.560;2023-07-30T08:57:33;2.65;;;1.40;;
23496;SDS011;11925;48.122;11.560;2023-07-30T09:00:02;2.35;;;1.60;;
23496;SDS011;11925;48.122;11.560;2023-07-30T09:02:33;3.33;;;1.88;;
23496;SDS011;11925;48.122;11.560;2023-07-30T09:05:04;2.65;;;1.60;;
23496;SDS011;11925;48.122;11.560;2023-07-30T09:07:33;2.95;;;1.90;;
23496;SDS011;11925;48.122;11.560;2023-07-30T09:10:02;2.10;;;1.30;;
23496;SDS011;11925;48.122;11.560;2023-07-30T09:12:31;3.67;;;1.73;;
23496;SDS011;11925;48.122;11.560;2023-07-30T09:15:00;3.20;;;1.60;;
23496;SDS011;11925;48.122;11.560;2023-07-30T09:17:31;4.93;;;1.50;;
23496;SDS011;11925;48.122;11.560;2023-07-30T09:19:59;2.50;;;1.50;;
23496;SDS011;11925;48.122;11.560;2023-07-30T09:22:31;2.45;;;1.42;;
23496;SDS011;11925;48.122;11.560;2023-07-30T09:25:03;3.53;;;1.40;;
23496;SDS011;11925;48.122;11.560;2023-07-30T09:27:32;3.60;;;1.50;;
23496;SDS011;11925;48.122;11.560;2023-07-30T09:30:01;2.45;;;1.40;;
23496;SDS011;11925;48.122;11.560;2023-07-30T09:32:31;2.45;;;1.40;;
23496;SDS011;11925;48.122;11.560;2023-07-30T09:35:04;3.97;;;1.60;;
23496;SDS011;11925;48.122;11.560;2023-07-30T09:37:37;2.22;;;1.40;;
23496;SDS011;11925;48.122;11.560;2023-07-30T09:40:07;2.33;;;1.52;;
23496;SDS011;11925;48.122;11.560;2023-07-30T09:42:36;2.80;;;1.10;;
23496;SDS011;11925;48.122;11.560;2023-07-30T09:45:07;2.28;;;1.30;;
23496;SDS011;11925;48.122;11.560;2023-07-30T09:47:36;2.15;;;1.33;;
23496;SDS011;11925;48.122;11.560;2023-07-30T09:50:05;3.22;;;1.40;;
23496;SDS011;11925;48.122;11.560;2023-07-30T09:52:34;2.72;;;1.50;;
23496;SDS011;11925;48.122;11.560;2023-07-30T09:55:04;2.67;;;1.40;;
23496;SDS011;11925;48.122;11.560;2023-07-30T09:57:34;3.08;;;1.55;;
23496;SDS011;11925;48.122;11.560;2023-07-30T10:00:03;2.35;;;1.52;;
23496;SDS011;11925;48.122;11.560;2023-07-30T10:05:03;2.22;;;1.58;;
23496;SDS011;11925;48.122;11.560;2023-07-30T10:07:34;1.98;;;1.35;;
23496;SDS011;11925;48.122;11.560;2023-07-30T10:10:05;2.20;;;1.52;;
23496;SDS011;11925;48.122;11.560;2023-07-30T10:12:35;3.92;;;1.35;;
23496;SDS011;11925;48.122;11.560;2023-07-30T10:15:04;2.97;;;1.52;;
23496;SDS011;11925;48.122;11.560;2023-07-30T10:17:34;2.47;;;1.42;;
23496;SDS011;11925;48.122;11.560;2023-07-30T10:20:22;2.13;;;1.35;;
23496;SDS011;11925;48.122;11.560;2023-07-30T10:22:51;2.13;;;1.30;;
23496;SDS011;11925;48.122;11.560;2023-07-30T10:25:22;4.25;;;1.25;;
23496;SDS011;11925;48.122;11.560;2023-07-30T10:27:51;2.03;;;1.23;;
23496;SDS011;11925;48.122;11.560;2023-07-30T10:30:20;3.80;;;1.90;;
23496;SDS011;11925;48.122;11.560;2023-07-30T10:32:59;3.30;;;1.08;;
23496;SDS011;11925;48.122;11.560;2023-07-30T10:35:35;2.40;;;1.23;;
23496;SDS011;11925;48.122;11.560;2023-07-30T10:38:14;1.88;;;1.33;;
23496;SDS011;11925;48.122;11.560;2023-07-30T10:43:28;2.22;;;1.00;;
23496;SDS011;11925;48.122;11.560;2023-07-30T10:45:57;2.07;;;1.20;;
23496;SDS011;11925;48.122;11.560;2023-07-30T10:48:30;2.53;;;1.10;;
23496;SDS011;11925;48.122;11.560;2023-07-30T10:51:00;1.77;;;1.00;;
23496;SDS011;11925;48.122;11.560;2023-07-30T10:53:29;1.92;;;1.20;;
23496;SDS011;11925;48.122;11.560;2023-07-30T10:55:58;2.92;;;1.40;;
23496;SDS011;11925;48.122;11.560;2023-07-30T10:58:31;1.58;;;1.10;;
23496;SDS011;11925;48.122;11.560;2023-07-30T11:01:01;2.08;;;1.08;;
23496;SDS011;11925;48.122;11.560;2023-07-30T11:03:30;2.30;;;1.40;;
23496;SDS011;11925;48.122;11.560;2023-07-30T11:05:59;2.58;;;1.25;;
23496;SDS011;11925;48.122;11.560;2023-07-30T11:08:32;3.25;;;1.92;;
23496;SDS011;11925;48.122;11.560;2023-07-30T11:11:01;2.72;;;1.50;;
23496;SDS011;11925;48.122;11.560;2023-07-30T11:13:31;2.20;;;1.40;;
23496;SDS011;11925;48.122;11.560;2023-07-30T11:16:04;2.58;;;1.58;;
23496;SDS011;11925;48.122;11.560;2023-07-30T11:18:33;3.10;;;1.60;;
23496;SDS011;11925;48.122;11.560;2023-07-30T11:21:03;3.13;;;1.52;;
23496;SDS011;11925;48.122;11.560;2023-07-30T11:23:32;2.72;;;1.60;;
23496;SDS011;11925;48.122;11.560;2023-07-30T11:26:01;2.80;;;1.50;;
23496;SDS011;11925;48.122;11.560;2023-07-30T11:28:32;2.65;;;1.42;;
23496;SDS011;11925;48.122;11.560;2023-07-30T11:31:04;3.70;;;1.60;;
23496;SDS011;11925;48.122;11.560;2023-07-30T11:33:33;2.88;;;1.42;;
23496;SDS011;11925;48.122;11.560;2023-07-30T11:36:03;2.53;;;1.52;;
23496;SDS011;11925;48.122;11.560;2023-07-30T11:38:32;3.75;;;1.77;;
23496;SDS011;11925;48.122;11.560;2023-07-30T11:41:00;2.08;;;1.58;;
23496;SDS011;11925;48.122;11.560;2023-07-30T11:43:31;2.70;;;1.60;;
23496;SDS011;11925;48.122;11.560;2023-07-30T11:46:07;2.17;;;1.40;;
23496;SDS011;11925;48.122;11.560;2023-07-30T11:48:36;2.28;;;1.30;;
23496;SDS011;11925;48.122;11.560;2023-07-30T11:51:05;3.35;;;1.25;;
23496;SDS011;11925;48.122;11.560;2023-07-30T11:53:43;2.13;;;1.20;;
23496;SDS011;11925;48.122;11.560;2023-07-30T11:56:16;2.65;;;1.60;;
23496;SDS011;11925;48.122;11.560;2023-07-30T11:58:47;2.63;;;1.40;;
23496;SDS011;11925;48.122;11.560;2023-07-30T12:01:16;3.40;;;1.40;;
23496;SDS011;11925;48.122;11.560;2023-07-30T12:03:45;2.05;;;1.33;;
23496;SDS011;11925;48.122;11.560;2023-07-30T12:06:16;3.47;;;1.60;;
23496;SDS011;11925;48.122;11.560;2023-07-30T12:08:45;2.78;;;1.38;;
23496;SDS011;11925;48.122;11.560;2023-07-30T12:11:17;2.80;;;1.45;;
23496;SDS011;11925;48.122;11.560;2023-07-30T12:13:47;2.30;;;1.50;;
23496;SDS011;11925;48.122;11.560;2023-07-30T12:16:17;2.90;;;1.50;;
23496;SDS011;11925;48.122;11.560;2023-07-30T12:18:48;2.47;;;1.40;;
23496;SDS011;11925;48.122;11.560;2023-07-30T12:21:16;2.67;;;1.35;;
23496;SDS011;11925;48.122;11.560;2023-07-30T12:23:45;2.80;;;1.40;;
23496;SDS011;11925;48.122;11.560;2023-07-30T12:26:14;2.70;;;1.80;;
23496;SDS011;11925;48.122;11.560;2023-07-30T12:28:43;3.47;;;1.70;;
23496;SDS011;11925;48.122;11.560;2023-07-30T12:31:13;2.50;;;1.52;;
23496;SDS011;11925;48.122;11.560;2023-07-30T12:33:43;2.63;;;1.40;;
23496;SDS011;11925;48.122;11.560;2023-07-30T12:36:11;2.55;;;1.50;;
23496;SDS011;11925;48.122;11.560;2023-07-30T12:38:40;2.72;;;1.63;;
23496;SDS011;11925;48.122;11.560;2023-07-30T12:41:12;2.30;;;1.40;;
23496;SDS011;11925;48.122;11.560;2023-07-30T12:43:41;2.28;;;1.50;;
23496;SDS011;11925;48.122;11.560;2023-07-30T12:46:10;3.25;;;1.98;;
23496;SDS011;11925;48.122;11.560;2023-07-30T12:48:40;3.13;;;1.48;;
23496;SDS011;11925;48.122;11.560;2023-07-30T12:51:09;2.90;;;1.70;;
23496;SDS011;11925;48.122;11.560;2023-07-30T12:53:38;2.72;;;1.50;;
23496;SDS011;11925;48.122;11.560;2023-07-30T12:56:08;1.95;;;1.40;;
23496;SDS011;11925;48.122;11.560;2023-07-30T12:58:37;3.28;;;1.50;;
23496;SDS011;11925;48.122;11.560;2023-07-30T13:01:06;2.65;;;1.75;;
23496;SDS011;11925;48.122;11.560;2023-07-30T13:03:35;2.25;;;1.50;;
23496;SDS011;11925;48.122;11.560;2023-07-30T13:06:07;3.00;;;1.60;;
23496;SDS011;11925;48.122;11.560;2023-07-30T13:08:36;2.58;;;1.60;;
23496;SDS011;11925;48.122;11.560;2023-07-30T13:11:04;2.63;;;1.52;;
23496;SDS011;11925;48.122;11.560;2023-07-30T13:13:33;3.95;;;2.05;;
23496;SDS011;11925;48.122;11.560;2023-07-30T13:16:02;3.80;;;1.60;;
23496;SDS011;11925;48.122;11.560;2023-07-30T13:18:31;3.80;;;1.65;;
23496;SDS011;11925;48.122;11.560;2023-07-30T13:20:59;2.25;;;1.50;;
23496;SDS011;11925;48.122;11.560;2023-07-30T13:23:29;4.38;;;1.80;;
23496;SDS011;11925;48.122;11.560;2023-07-30T13:25:59;2.95;;;1.60;;
23496;SDS011;11925;48.122;11.560;2023-07-30T13:28:29;2.35;;;1.58;;
23496;SDS011;11925;48.122;11.560;2023-07-30T13:30:58;2.30;;;1.60;;
23496;SDS011;11925;48.122;11.560;2023-07-30T13:33:27;2.33;;;1.35;;
23496;SDS011;11925;48.122;11.560;2023-07-30T13:35:56;3.05;;;1.77;;
23496;SDS011;11925;48.122;11.560;2023-07-30T13:38:25;2.92;;;1.80;;
23496;SDS011;11925;48.122;11.560;2023-07-30T13:40:55;3.05;;;1.90;;
23496;SDS011;11925;48.122;11.560;2023-07-30T13:43:24;2.38;;;1.55;;
23496;SDS011;11925;48.122;11.560;2023-07-30T13:45:52;5.45;;;1.77;;
23496;SDS011;11925;48.122;11.560;2023-07-30T13:48:21;4.43;;;1.80;;
23496;SDS011;11925;48.122;11.560;2023-07-30T13:50:50;5.07;;;2.58;;
23496;SDS011;11925;48.122;11.560;2023-07-30T13:53:19;4.90;;;2.30;;
23496;SDS011;11925;48.122;11.560;2023-07-30T13:55:48;5.70;;;2.22;;
23496;SDS011;11925;48.122;11.560;2023-07-30T13:58:18;4.90;;;2.25;;
23496;SDS011;11925;48.122;11.560;2023-07-30T14:00:47;5.50;;;2.40;;
23496;SDS011;11925;48.122;11.560;2023-07-30T14:03:16;3.10;;;1.92;;
23496;SDS011;11925;48.122;11.560;2023-07-30T14:05:45;5.65;;;2.38;;
23496;SDS011;11925;48.122;11.560;2023-07-30T14:08:13;4.72;;;2.20;;
23496;SDS011;11925;48.122;11.560;2023-07-30T14:10:42;3.55;;;2.00;;
23496;SDS011;11925;48.122;11.560;2023-07-30T14:13:11;4.07;;;2.10;;
23496;SDS011;11925;48.122;11.560;2023-07-30T14:15:41;5.70;;;2.20;;
23496;SDS011;11925;48.122;11.560;2023-07-30T14:18:10;3.25;;;1.98;;
23496;SDS011;11925;48.122;11.560;2023-07-30T14:20:39;5.05;;;2.20;;
23496;SDS011;11925;48.122;11.560;2023-07-30T14:23:09;4.28;;;1.90;;
23496;SDS011;11925;48.122;11.560;2023-07-30T14:25:39;3.55;;;1.95;;
23496;SDS011;11925;48.122;11.560;2023-07-30T14:28:07;2.97;;;1.63;;
23496;SDS011;11925;48.122;11.560;2023-07-30T14:30:36;4.55;;;1.90;;
23496;SDS011;11925;48.122;11.560;2023-07-30T14:33:12;3.50;;;1.83;;
23496;SDS011;11925;48.122;11.560;2023-07-30T14:35:41;3.67;;;2.10;;
23496;SDS011;11925;48.122;11.560;2023-07-30T14:38:10;4.57;;;1.90;;
23496;SDS011;11925;48.122;11.560;2023-07-30T14:40:39;3.65;;;2.08;;
23496;SDS011;11925;48.122;11.560;2023-07-30T14:43:26;2.83;;;1.92;;
23496;SDS011;11925;48.122;11.560;2023-07-30T14:45:55;3.90;;;1.90;;
23496;SDS011;11925;48.122;11.560;2023-07-30T14:48:25;4.60;;;2.00;;
23496;SDS011;11925;48.122;11.560;2023-07-30T14:50:54;6.17;;;2.27;;